»·PEaware :: N915TB KSNA-KSAS

N915TB :: KSNA-KSAS

FLIGHT INFORMATION

Flight Status: Arrived
Operator: Privately registered:
United States
More flights under this callsign
Pilot: Jake M. (20491)
Aircraft: SOCATA TBM-900
(TBM9)
More flights by this aircraft type
Origin: KSNA John Wayne-Orange Co
United States
Destination: KSAS Salton Sea
United States
More flights between these airports :: More routes between these airports
Route: +V23 OCN V208 JLI
File this flight plan on PilotEdge
Remarks:
Altitude:
(Current/Filed)
11,000ft
Speed:
(Current/Filed)
280kts
Departed: 09-Dec-19 09:08 PM
Arrived: 09-Dec-19 09:45 PM
Distance/Time
Traveled:
67nm/0:37
Distance/Time
To Go:
Arrived

Flight Plot

Page will automatically refresh every two minutes.

Flight plan parsing failed; only flown route is shown


Map Options




Map Legend


Flown Route
Filed Route
Departure Airport
Arrival Airport
Navaid (VOR, NDB)
Fix

Horizontal Profiles

Position Reports

Time Latitude Longitude Heading Altitude Ground
Speed
09-Dec-19 20:55 33.675357 -117.871184 29 49ft 0kts
09-Dec-19 20:56 33.675357 -117.871184 29 49ft 0kts
09-Dec-19 20:58 33.675357 -117.871184 29 49ft 0kts
09-Dec-19 20:59 33.675357 -117.871184 29 49ft 0kts
09-Dec-19 21:00 33.675357 -117.871184 29 49ft 0kts
09-Dec-19 21:01 33.675357 -117.871184 29 49ft 0kts
09-Dec-19 21:02 33.675357 -117.871184 29 49ft 0kts
09-Dec-19 21:03 33.675357 -117.871184 29 49ft 0kts
09-Dec-19 21:04 33.675523 -117.871012 73 49ft 7kts
09-Dec-19 21:05 33.675482 -117.870753 100 49ft 6kts
09-Dec-19 21:06 33.679745 -117.867956 22 43ft 17kts
09-Dec-19 21:07 33.681218 -117.866430 115 41ft 0kts
09-Dec-19 21:08 33.672940 -117.870463 204 139ft 113kts
09-Dec-19 21:09 33.638288 -117.880432 186 1972ft 140kts
09-Dec-19 21:10 33.600858 -117.885716 186 4196ft 137kts
09-Dec-19 21:11 33.564848 -117.876913 121 6393ft 151kts
09-Dec-19 21:12 33.541421 -117.834675 121 8619ft 154kts
09-Dec-19 21:13 33.516058 -117.790922 121 10626ft 171kts
09-Dec-19 21:14 33.482125 -117.733639 121 11029ft 251kts
09-Dec-19 21:15 33.439818 -117.660399 121 11004ft 276kts
09-Dec-19 21:16 33.388513 -117.590104 133 11002ft 283kts
09-Dec-19 21:16 33.341197 -117.534877 133 11001ft 284kts
09-Dec-19 21:18 33.297022 -117.443665 97 10995ft 276kts
09-Dec-19 21:19 33.280940 -117.354558 97 10992ft 272kts
09-Dec-19 21:19 33.267645 -117.280574 97 10991ft 271kts
09-Dec-19 21:21 33.249027 -117.177467 97 10992ft 271kts
09-Dec-19 21:21 33.235666 -117.103734 97 10992ft 274kts
09-Dec-19 21:22 33.219482 -117.014830 97 10988ft 274kts
09-Dec-19 21:23 33.203072 -116.925030 97 10985ft 275kts
09-Dec-19 21:24 33.186710 -116.835828 97 10985ft 274kts
09-Dec-19 21:25 33.170321 -116.746975 97 10982ft 272kts
09-Dec-19 21:26 33.154016 -116.658895 97 10984ft 271kts
09-Dec-19 21:27 33.142782 -116.570251 73 10967ft 263kts
09-Dec-19 21:28 33.156822 -116.484481 73 10965ft 262kts
09-Dec-19 21:29 33.170498 -116.399322 73 10965ft 260kts
09-Dec-19 21:30 33.184406 -116.312446 74 10626ft 270kts
09-Dec-19 21:31 33.198735 -116.222254 75 9654ft 277kts
09-Dec-19 21:32 33.212347 -116.136916 75 8953ft 238kts
09-Dec-19 21:33 33.223747 -116.063356 75 8947ft 218kts
09-Dec-19 21:34 33.209086 -116.000704 153 8150ft 221kts
09-Dec-19 21:35 33.173737 -116.032899 273 7393ft 186kts
09-Dec-19 21:36 33.182233 -116.088492 310 6362ft 164kts
09-Dec-19 21:37 33.197742 -116.136055 256 5071ft 176kts
09-Dec-19 21:38 33.200861 -116.188347 346 3479ft 175kts
09-Dec-19 21:39 33.224494 -116.144742 76 2118ft 171kts
09-Dec-19 21:40 33.229379 -116.094602 77 1783ft 161kts
09-Dec-19 21:41 33.233591 -116.041998 84 1284ft 140kts
09-Dec-19 21:42 33.236960 -116.003394 83 799ft 107kts
09-Dec-19 21:43 33.239940 -115.970969 87 323ft 88kts
09-Dec-19 21:44 33.241517 -115.948488 323 -80ft 7kts
09-Dec-19 21:46 33.240902 -115.951882 285 -80ft 0kts
09-Dec-19 21:47 33.241056 -115.952191 286 -80ft 10kts
09-Dec-19 21:48 33.242003 -115.975773 290 567ft 109kts
09-Dec-19 21:49 33.254886 -116.015880 287 1940ft 149kts
09-Dec-19 21:50 33.267397 -116.065705 288 3499ft 162kts
09-Dec-19 21:51 33.279809 -116.118091 289 5132ft 166kts
09-Dec-19 21:52 33.292228 -116.171016 290 7043ft 169kts
09-Dec-19 21:53 33.305214 -116.226532 290 8613ft 182kts
09-Dec-19 21:54 33.319137 -116.286320 291 10022ft 186kts
09-Dec-19 21:55 33.334076 -116.350373 290 10480ft 221kts
09-Dec-19 21:56 33.351391 -116.425215 289 10467ft 239kts
09-Dec-19 21:57 33.369334 -116.502932 289 10465ft 243kts
09-Dec-19 21:58 33.387430 -116.581511 289 10463ft 244kts

Navigation Log

Ident Type
Flight plan parsing failed, navigation log unavailable